Time;durP1;ratioP1;P1;durP2;ratioP2;P2;SDS_P1;SDS_P2;PMS_P1;PMS_P2;Temp;Humidity;BMP_temperature;BMP_pressure;BME280_temperature;BME280_humidity;BME280_pressure;Samples;Min_cycle;Max_cycle;Signal;HPM_P1;HPM_P2
2023/06/01 00:01:16;;;;;;;;;;;15.70;1.00;;;;;;5011178;28;19944;-73
2023/06/01 00:03:42;;;;;;;;;;;15.70;1.00;;;;;;4997894;28;19909;-73
2023/06/01 00:06:08;;;;;;;;;;;15.60;1.00;;;;;;5013966;28;20320;-74
2023/06/01 00:08:40;;;;;;;;;;;15.60;1.00;;;;;;5011730;28;19948;-78
2023/06/01 00:11:16;;;;;;;;;;;15.50;1.00;;;;;;5014092;28;19959;-78
2023/06/01 00:13:42;;;;;;;;;;;15.50;1.00;;;;;;5001232;28;19923;-78
2023/06/01 00:16:12;;;;;;;;;;;15.40;1.00;;;;;;5009517;28;19922;-80
2023/06/01 00:18:46;;;;;;;;;;;15.40;1.00;;;;;;5003128;28;19909;-78
2023/06/01 00:21:23;;;;;;;;;;;15.30;1.00;;;;;;5014103;28;19910;-78
2023/06/01 00:23:49;;;;;;;;;;;15.30;1.00;;;;;;5009794;28;19913;-74
2023/06/01 00:26:16;;;;;;;;;;;15.30;1.00;;;;;;5014549;28;20008;-74
2023/06/01 00:28:42;;;;;;;;;;;15.20;1.00;;;;;;5011443;28;19917;-75
2023/06/01 00:31:10;;;;;;;;;;;15.20;1.00;;;;;;5009548;28;19931;-74
2023/06/01 00:33:36;;;;;;;;;;;15.20;1.00;;;;;;5011973;28;20326;-74
2023/06/01 00:36:02;;;;;;;;;;;15.10;1.00;;;;;;5005514;28;20008;-74
2023/06/01 00:38:27;;;;;;;;;;;15.10;1.00;;;;;;5007856;28;19910;-74
2023/06/01 00:40:53;;;;;;;;;;;15.10;1.00;;;;;;5014796;28;20341;-74
2023/06/01 00:43:18;;;;;;;;;;;15.10;1.00;;;;;;5014410;28;19971;-74
2023/06/01 00:45:44;;;;;;;;;;;15.10;1.00;;;;;;5008450;28;20262;-74
2023/06/01 00:48:10;;;;;;;;;;;15.10;1.00;;;;;;5006733;28;19917;-74
2023/06/01 00:50:46;;;;;;;;;;;15.10;1.00;;;;;;5014290;28;19914;-74
2023/06/01 00:53:18;;;;;;;;;;;15.10;1.00;;;;;;5013510;28;19917;-74
2023/06/01 00:56:04;;;;;;;;;;;15.00;1.00;;;;;;4993546;28;20378;-79
2023/06/01 00:58:41;;;;;;;;;;;15.00;1.00;;;;;;4994322;28;19917;-78
2023/06/01 01:01:18;;;;;;;;;;;15.00;1.00;;;;;;4988417;28;19914;-78
2023/06/01 01:03:57;;;;;;;;;;;15.00;1.00;;;;;;5004681;28;19913;-78
2023/06/01 01:06:25;;;;;;;;;;;15.00;1.00;;;;;;5014468;28;19913;-79
2023/06/01 01:09:07;;;;;;;;;;;15.00;1.00;;;;;;5014320;28;20289;-78
2023/06/01 01:11:34;;;;;;;;;;;15.00;1.00;;;;;;5005599;28;20324;-74
2023/06/01 01:14:09;;;;;;;;;;;15.10;1.00;;;;;;5012710;28;20385;-74
2023/06/01 01:16:50;;;;;;;;;;;15.00;1.00;;;;;;5000217;28;19917;-74
2023/06/01 01:19:21;;;;;;;;;;;15.10;1.00;;;;;;5011985;28;20421;-74
2023/06/01 01:21:56;;;;;;;;;;;15.10;1.00;;;;;;5003585;28;20353;-75
2023/06/01 01:24:42;;;;;;;;;;;15.10;1.00;;;;;;5013517;28;20001;-74
2023/06/01 01:27:11;;;;;;;;;;;15.10;1.00;;;;;;5013709;28;20343;-74
2023/06/01 01:29:37;;;;;;;;;;;15.10;1.00;;;;;;5013031;28;20277;-74
2023/06/01 01:32:11;;;;;;;;;;;15.10;1.00;;;;;;5013277;28;19914;-74
2023/06/01 01:34:37;;;;;;;;;;;15.10;1.00;;;;;;4983664;28;19910;-74
2023/06/01 01:37:03;;;;;;;;;;;15.20;1.00;;;;;;5010536;28;20288;-74
2023/06/01 01:39:28;;;;;;;;;;;15.20;1.00;;;;;;5013636;28;19914;-74
2023/06/01 01:41:54;;;;;;;;;;;15.20;1.00;;;;;;5013994;28;19910;-74
2023/06/01 01:44:20;;;;;;;;;;;15.20;1.00;;;;;;5005252;28;19920;-74
2023/06/01 01:46:46;;;;;;;;;;;15.20;1.00;;;;;;5004997;28;20385;-74
2023/06/01 01:49:25;;;;;;;;;;;15.20;1.00;;;;;;4993701;28;20016;-74
2023/06/01 01:51:57;;;;;;;;;;;15.20;1.00;;;;;;5008065;28;20004;-74
2023/06/01 01:54:26;;;;;;;;;;;15.20;1.00;;;;;;5013422;28;19940;-78
2023/06/01 01:56:56;;;;;;;;;;;15.20;1.00;;;;;;5013585;28;20439;-78
2023/06/01 01:59:23;;;;;;;;;;;15.20;1.00;;;;;;4986735;28;19917;-78
2023/06/01 02:01:53;;;;;;;;;;;15.20;1.00;;;;;;5002465;28;19917;-78
2023/06/01 02:04:18;;;;;;;;;;;15.20;1.00;;;;;;4995549;28;19921;-79
2023/06/01 02:06:52;;;;;;;;;;;15.20;1.00;;;;;;5013484;28;19917;-79
2023/06/01 02:09:22;;;;;;;;;;;15.20;1.00;;;;;;5013682;28;19984;-78
2023/06/01 02:11:53;;;;;;;;;;;15.30;1.00;;;;;;5013727;28;19919;-79
2023/06/01 02:14:18;;;;;;;;;;;15.30;1.00;;;;;;5013495;28;20008;-79
2023/06/01 02:16:46;;;;;;;;;;;15.30;1.00;;;;;;5012579;28;19953;-79
2023/06/01 02:19:23;;;;;;;;;;;15.30;1.00;;;;;;5013234;28;19956;-79
2023/06/01 02:21:53;;;;;;;;;;;15.30;1.00;;;;;;5013422;28;19933;-78
2023/06/01 02:24:23;;;;;;;;;;;15.30;1.00;;;;;;5006157;28;19957;-79
2023/06/01 02:26:51;;;;;;;;;;;15.20;1.00;;;;;;5013387;28;19952;-74
2023/06/01 02:29:19;;;;;;;;;;;15.20;1.00;;;;;;5012199;28;20361;-74
2023/06/01 02:31:45;;;;;;;;;;;15.20;1.00;;;;;;5012321;28;19918;-73
2023/06/01 02:34:10;;;;;;;;;;;15.10;1.00;;;;;;5005031;28;19916;-74
2023/06/01 02:36:36;;;;;;;;;;;15.10;1.00;;;;;;5003086;28;19914;-74
2023/06/01 02:39:04;;;;;;;;;;;15.00;1.00;;;;;;5012603;28;20373;-74
2023/06/01 02:41:34;;;;;;;;;;;15.00;1.00;;;;;;5013833;28;19917;-80
2023/06/01 02:44:10;;;;;;;;;;;14.90;1.00;;;;;;5012784;28;19909;-78
2023/06/01 02:46:40;;;;;;;;;;;14.80;1.00;;;;;;4996424;28;19914;-79
2023/06/01 02:49:06;;;;;;;;;;;14.80;1.00;;;;;;5012934;28;19963;-79
2023/06/01 02:51:32;;;;;;;;;;;14.70;1.00;;;;;;5013314;28;19913;-79
2023/06/01 02:54:05;;;;;;;;;;;14.70;1.00;;;;;;5013279;28;19917;-79
2023/06/01 02:56:46;;;;;;;;;;;14.70;1.00;;;;;;5012491;28;19913;-79
2023/06/01 02:59:22;;;;;;;;;;;14.60;1.00;;;;;;5014544;28;19914;-78
2023/06/01 03:01:53;;;;;;;;;;;14.60;1.00;;;;;;5016488;28;19913;-78
2023/06/01 03:04:23;;;;;;;;;;;14.60;1.00;;;;;;5016562;28;19909;-79
2023/06/01 03:06:53;;;;;;;;;;;14.60;1.00;;;;;;5016521;28;19956;-79
2023/06/01 03:09:18;;;;;;;;;;;14.60;1.00;;;;;;5016900;28;20281;-79
2023/06/01 03:11:53;;;;;;;;;;;14.70;1.00;;;;;;5014889;28;19913;-80
2023/06/01 03:14:18;;;;;;;;;;;14.70;1.00;;;;;;5016645;28;19917;-80
2023/06/01 03:16:46;;;;;;;;;;;14.90;1.00;;;;;;4998902;28;19921;-78
2023/06/01 03:19:22;;;;;;;;;;;14.80;1.00;;;;;;5016440;28;19987;-79
2023/06/01 03:21:53;;;;;;;7.45;2.08;;;14.80;1.00;;;;;;5015014;28;20423;-79
2023/06/01 03:24:26;;;;;;;3.33;2.27;;;14.80;1.00;;;;;;5016002;28;20173;-78
2023/06/01 03:26:51;;;;;;;4.97;2.20;;;14.90;1.00;;;;;;5015323;28;20464;-78
2023/06/01 03:29:35;;;;;;;3.57;2.43;;;;;;;;;;5016444;28;20470;-88
2023/06/01 03:32:02;;;;;;;5.10;2.40;;;15.10;1.00;;;;;;5012289;28;20205;-82
2023/06/01 03:34:36;;;;;;;2.83;2.00;;;15.10;1.00;;;;;;4990198;28;20936;-84
2023/06/01 03:37:07;;;;;;;3.17;1.93;;;15.00;1.00;;;;;;4994313;28;20455;-84
2023/06/01 03:39:35;;;;;;;6.30;2.30;;;15.10;1.00;;;;;;5011187;28;20509;-83
2023/06/01 03:42:11;;;;;;;5.33;2.10;;;15.10;1.00;;;;;;5015940;28;20934;-84
2023/06/01 03:44:47;;;;;;;7.50;2.40;;;15.10;1.00;;;;;;4998335;28;20398;-84
2023/06/01 03:47:17;;;;;;;5.33;2.17;;;15.20;1.00;;;;;;5014712;28;20962;-83
2023/06/01 03:50:08;;;;;;;17.00;2.50;;;15.20;1.00;;;;;;4997834;28;20428;-84
2023/06/01 03:52:36;;;;;;;3.80;2.37;;;15.20;1.00;;;;;;5015432;28;20494;-83
2023/06/01 03:55:35;;;;;;;3.17;2.40;;;15.40;1.00;;;;;;5015285;28;20938;-83
2023/06/01 03:58:35;;;;;;;3.50;2.47;;;15.30;1.00;;;;;;4984419;28;20962;-83
2023/06/01 04:01:02;;;;;;;2.43;2.10;;;15.30;1.00;;;;;;5011688;28;20436;-84
2023/06/01 04:03:35;;;;;;;3.50;2.27;;;15.40;1.00;;;;;;5015158;28;20411;-83
2023/06/01 04:06:11;;;;;;;3.03;1.80;;;15.40;1.00;;;;;;5010818;28;20435;-84
2023/06/01 04:09:09;;;;;;;2.50;1.90;;;15.40;1.00;;;;;;5014203;28;20603;-83
2023/06/01 04:11:35;;;;;;;5.10;2.43;;;15.40;1.00;;;;;;4995194;28;20868;-84
2023/06/01 04:14:01;;;;;;;3.70;2.13;;;15.40;1.00;;;;;;5014162;28;20535;-84
2023/06/01 04:16:35;;;;;;;12.40;2.47;;;15.40;1.00;;;;;;5014285;28;20464;-84
2023/06/01 04:19:05;;;;;;;3.13;1.80;;;15.50;1.00;;;;;;5013694;28;20216;-84
2023/06/01 04:21:36;;;;;;;6.93;2.50;;;15.50;1.00;;;;;;5011164;28;20939;-83
2023/06/01 04:24:05;;;;;;;3.53;2.73;;;15.60;1.00;;;;;;5008548;28;20435;-81
2023/06/01 04:26:36;;;;;;;4.67;2.50;;;15.60;1.00;;;;;;5008527;28;20996;-82
2023/06/01 04:29:05;;;;;;;3.90;2.50;;;15.60;1.00;;;;;;4996074;28;20452;-82
2023/06/01 04:31:35;;;;;;;2.80;2.20;;;15.60;1.00;;;;;;4990306;28;20429;-82
2023/06/01 04:34:01;;;;;;;5.90;2.30;;;15.70;1.00;;;;;;4993843;28;20410;-81
2023/06/01 04:36:32;;;;;;;3.93;2.03;;;15.80;1.00;;;;;;5008147;28;20836;-82
2023/06/01 04:38:59;;;;;;;5.43;3.00;;;15.80;1.00;;;;;;5010122;28;20475;-81
2023/06/01 04:41:35;;;;;;;3.70;2.10;;;15.90;1.00;;;;;;4997122;28;20428;-82
2023/06/01 04:44:06;;;;;;;5.50;2.30;;;15.90;1.00;;;;;;4990977;28;20470;-82
2023/06/01 04:47:03;;;;;;;3.73;1.90;;;15.90;1.00;;;;;;5014470;28;20927;-82
2023/06/01 04:49:32;;;;;;;7.40;2.90;;;16.00;1.00;;;;;;4995709;28;20424;-82
2023/06/01 04:52:05;;;;;;;15.07;2.77;;;16.00;1.00;;;;;;4996079;28;20446;-81
2023/06/01 04:54:35;;;;;;;6.70;2.20;;;16.10;1.00;;;;;;4996442;28;20424;-84
2023/06/01 04:57:08;;;;;;;3.73;2.37;;;16.10;1.00;;;;;;4993313;28;20435;-84
2023/06/01 04:59:36;;;;;;;3.10;2.17;;;16.10;1.00;;;;;;4994604;28;20521;-84
2023/06/01 05:02:05;;;;;;;7.90;2.63;;;16.20;1.00;;;;;;5010615;28;21310;-83
2023/06/01 05:04:52;;;;;;;3.10;2.00;;;16.20;1.00;;;;;;5013814;28;20413;-81
2023/06/01 05:07:18;;;;;;;4.17;2.33;;;16.30;1.00;;;;;;5011976;28;20467;-81
2023/06/01 05:10:06;;;;;;;7.60;2.33;;;16.40;1.00;;;;;;4995167;28;20441;-82
2023/06/01 05:12:36;;;;;;;9.10;2.37;;;16.50;1.00;;;;;;4989807;28;20444;-81
2023/06/01 05:15:35;;;;;;;7.77;2.30;;;16.50;1.00;;;;;;5008147;28;20502;-82
2023/06/01 05:18:05;;;;;;;3.43;2.20;;;16.60;1.00;;;;;;4994741;28;20441;-82
2023/06/01 05:20:41;;;;;;;16.43;2.50;;;16.60;1.00;;;;;;5003735;28;20437;-82
2023/06/01 05:23:34;;;;;;;7.67;2.10;;;16.70;1.00;;;;;;5012826;28;20991;-82
2023/06/01 05:26:05;;;;;;;45.90;3.70;;;16.80;1.00;;;;;;4994694;28;20438;-81
2023/06/01 05:28:35;;;;;;;4.30;1.93;;;16.90;1.00;;;;;;4995872;28;20453;-82
2023/06/01 05:31:01;;;;;;;15.47;2.20;;;17.00;1.00;;;;;;4994247;28;20487;-81
2023/06/01 05:33:36;;;;;;;3.80;2.07;;;17.10;1.00;;;;;;5012954;28;20957;-82
2023/06/01 05:36:10;;;;;;;3.57;2.20;;;17.10;1.00;;;;;;4995098;28;21470;-82
2023/06/01 05:38:53;;;;;;;5.33;2.40;;;17.20;1.00;;;;;;5013751;28;20932;-82
2023/06/01 05:41:38;;;;;;;4.90;1.97;;;17.30;1.00;;;;;;4996420;28;20914;-82
2023/06/01 05:44:08;;;;;;;2.70;1.87;;;17.50;1.00;;;;;;5007623;28;20410;-82
2023/06/01 05:46:35;;;;;;;2.90;2.27;;;17.50;1.00;;;;;;4996152;28;20427;-83
2023/06/01 05:49:05;;;;;;;6.93;2.20;;;17.60;1.00;;;;;;5013470;28;20463;-88
2023/06/01 05:51:37;;;;;;;8.13;2.20;;;17.60;1.00;;;;;;5013486;28;20788;-88
2023/06/01 05:54:05;;;;;;;3.33;1.87;;;17.70;1.00;;;;;;5006494;28;20995;-88
2023/06/01 05:56:37;;;;;;;3.57;2.40;;;17.80;1.00;;;;;;5006323;28;21025;-89
2023/06/01 05:59:53;;;;;;;8.43;2.30;;;17.90;1.00;;;;;;4997560;28;20467;-88
2023/06/01 06:02:19;;;;;;;2.83;2.00;;;18.00;1.00;;;;;;4981358;28;20447;-88
2023/06/01 06:08:41;;;;;;;14.20;2.67;;;18.10;1.00;;;;;;5004703;28;20513;-88
2023/06/01 06:11:11;;;;;;;23.97;9.13;;;18.30;1.00;;;;;;4995138;28;20432;-89
2023/06/01 06:13:37;;;;;;;6.97;2.10;;;18.30;1.00;;;;;;5009723;28;20435;-84
2023/06/01 06:16:52;;;;;;;7.43;2.30;;;18.40;1.00;;;;;;4996121;28;20794;-84
2023/06/01 06:19:58;;;;;;;52.57;19.47;;;18.50;1.00;;;;;;4996513;28;20185;-84
2023/06/01 06:22:29;;;;;;;3.87;2.20;;;18.60;1.00;;;;;;4994155;28;20450;-84
2023/06/01 06:25:06;;;;;;;7.03;3.20;;;18.70;1.00;;;;;;5006124;28;20501;-85
2023/06/01 06:34:16;;;;;;;4.43;2.07;;;19.10;1.00;;;;;;5006611;28;20386;-84
2023/06/01 06:37:14;;;;;;;4.43;2.20;;;19.20;1.00;;;;;;5014030;28;21181;-83
2023/06/01 06:39:53;;;;;;;3.83;1.80;;;19.40;1.00;;;;;;4990296;28;20244;-84
2023/06/01 06:42:35;;;;;;;4.57;2.27;;;19.50;1.00;;;;;;4995799;28;20444;-87
2023/06/01 06:51:46;;;;;;;2.80;1.83;;;19.80;1.00;;;;;;5015402;28;20424;-88
2023/06/01 06:58:05;;;;;;;6.57;2.30;;;20.20;1.00;;;;;;5017114;28;20495;-84
2023/06/01 07:03:52;;;;;;;7.67;2.33;;;20.40;1.00;;;;;;5009091;28;20413;-84
2023/06/01 07:07:05;;;;;;;2.93;2.10;;;20.50;1.00;;;;;;5016739;28;20512;-84
2023/06/01 07:09:47;;;;;;;3.33;1.70;;;20.60;1.00;;;;;;4992492;28;20186;-84
2023/06/01 07:15:58;;;;;;;9.23;1.90;;;20.90;1.00;;;;;;5014845;28;20441;-89
2023/06/01 07:18:41;;;;;;;6.97;2.30;;;21.00;1.00;;;;;;4996637;28;20437;-89
2023/06/01 07:28:26;;;;;;;12.43;2.87;;;21.60;1.00;;;;;;5004830;28;20469;-88
2023/06/01 07:34:17;;;;;;;7.53;2.40;;;21.60;1.00;;;;;;5002178;28;20887;-88
2023/06/01 07:37:11;;;;;;;4.80;2.50;;;21.70;1.00;;;;;;4994768;28;20416;-88
2023/06/01 07:39:51;;;;;;;5.53;1.93;;;21.80;1.00;;;;;;4983492;28;20439;-88
2023/06/01 07:42:17;;;;;;;6.80;2.20;;;22.00;1.00;;;;;;5002763;28;20886;-88
2023/06/01 07:44:53;;;;;;;2.37;2.17;;;22.00;1.00;;;;;;4998475;28;20455;-88
2023/06/01 07:54:03;;;;;;;4.70;2.20;;;22.50;1.00;;;;;;5015846;28;20460;-88
2023/06/01 07:59:53;;;;;;;7.70;2.40;;;22.70;1.00;;;;;;5003675;28;20198;-84
2023/06/01 08:02:29;;;;;;;5.97;2.70;;;22.70;1.00;;;;;;4998029;28;20426;-83
2023/06/01 08:05:17;;;;;;;9.53;2.30;;;22.80;1.00;;;;;;5015263;28;20432;-84
2023/06/01 08:07:48;;;;;;;6.90;2.37;;;22.90;1.00;;;;;;4998157;28;20461;-84
2023/06/01 08:10:14;;;;;;;13.83;2.40;;;23.10;1.00;;;;;;4997416;28;20438;-83
2023/06/01 08:12:42;;;;;;;3.97;2.27;;;23.20;1.00;;;;;;4998151;28;20930;-84
2023/06/01 08:18:59;;;;;;;7.70;2.37;;;23.40;1.00;;;;;;5010612;28;20423;-88
2023/06/01 08:28:11;;;;;;;6.70;2.03;;;23.80;1.00;;;;;;5007579;28;20464;-88
2023/06/01 08:31:17;;;;;;;4.53;2.57;;;24.00;1.00;;;;;;4992689;28;20482;-88
2023/06/01 08:34:23;;;;;;;7.70;2.30;;;24.00;1.00;;;;;;5000710;28;20455;-88
2023/06/01 08:37:05;;;;;;;3.20;1.83;;;24.20;1.00;;;;;;4995468;28;20446;-88
2023/06/01 08:43:41;;;;;;;4.93;2.53;;;24.30;1.00;;;;;;5005793;28;20421;-88
2023/06/01 08:49:36;;;;;;;6.10;2.20;;;24.60;1.00;;;;;;5009811;28;20477;-88
2023/06/01 08:52:31;;;;;;;4.77;2.10;;;24.70;1.00;;;;;;4990043;28;20466;-88
2023/06/01 08:58:37;;;;;;;3.70;2.03;;;25.00;1.00;;;;;;5005805;28;20441;-88
2023/06/01 09:05:05;;;;;;;8.57;2.10;;;25.10;1.00;;;;;;5009919;28;20476;-88
2023/06/01 09:08:05;;;;;;;7.87;2.13;;;25.30;1.00;;;;;;5004096;28;20465;-87
2023/06/01 09:11:05;;;;;;;3.47;1.90;;;25.40;1.00;;;;;;5010133;28;20515;-88
2023/06/01 09:13:39;;;;;;;5.73;2.70;;;25.50;1.00;;;;;;4995365;28;20438;-88
2023/06/01 09:16:34;;;;;;;9.57;1.80;;;25.60;1.00;;;;;;5014999;28;20522;-87
2023/06/01 09:19:23;;;;;;;4.60;2.27;;;25.70;1.00;;;;;;5011239;28;20444;-88
2023/06/01 09:22:06;;;;;;;1.90;1.80;;;25.80;1.00;;;;;;5013021;28;20434;-88
2023/06/01 09:25:23;;;;;;;5.40;2.23;;;25.80;1.00;;;;;;4992864;28;20446;-88
2023/06/01 09:28:06;;;;;;;5.17;1.83;;;26.00;1.00;;;;;;4995708;28;20469;-88
2023/06/01 09:30:53;;;;;;;4.87;1.90;;;26.10;1.00;;;;;;4991132;28;20438;-85
2023/06/01 09:33:24;;;;;;;3.83;1.80;;;26.10;1.00;;;;;;4980133;28;20436;-85
2023/06/01 09:35:53;;;;;;;6.83;2.43;;;26.00;1.00;;;;;;4995925;28;20440;-85
2023/06/01 09:38:31;;;;;;;6.50;2.73;;;26.10;1.00;;;;;;5003881;28;20789;-85
2023/06/01 09:41:25;;;;;;;6.90;1.80;;;26.20;1.00;;;;;;4994133;28;20430;-84
2023/06/01 09:44:35;;;;;;;2.20;1.53;;;26.30;1.00;;;;;;4996912;28;20433;-85
2023/06/01 09:47:28;;;;;;;14.40;2.90;;;26.40;1.00;;;;;;4984543;28;20507;-88
2023/06/01 09:50:43;;;;;;;6.27;2.17;;;26.60;1.00;;;;;;4997020;28;20449;-88
2023/06/01 09:53:24;;;;;;;8.87;2.50;;;26.60;1.00;;;;;;4926950;29;20430;-88
2023/06/01 09:56:05;;;;;;;4.07;2.50;;;26.50;1.00;;;;;;4919313;29;20431;-88
2023/06/01 09:58:43;;;;;;;4.17;1.77;;;26.60;1.00;;;;;;4917115;29;20430;-88
2023/06/01 10:01:35;;;;;;;;;;;26.60;1.00;;;;;;4930157;29;20491;-84
2023/06/01 10:04:20;;;;;;;;;;;26.70;1.00;;;;;;4935233;29;20013;-85
2023/06/01 10:07:05;;;;;;;;;;;26.70;1.00;;;;;;4947481;29;19918;-84
2023/06/01 10:10:05;;;;;;;;;;;26.70;1.00;;;;;;4925798;29;19961;-85
2023/06/01 10:12:53;;;;;;;;;;;26.80;1.00;;;;;;4933639;29;19907;-85
2023/06/01 10:15:23;;;;;;;;;;;26.70;1.00;;;;;;4929468;29;19959;-87
2023/06/01 10:17:53;;;;;;;;;;;26.70;1.00;;;;;;4918602;29;20013;-88
2023/06/01 10:20:47;;;;;;;;;;;26.90;1.00;;;;;;4932453;29;19921;-87
2023/06/01 10:23:41;;;;;;;;;;;27.00;1.00;;;;;;4938597;29;19957;-87
2023/06/01 10:26:35;;;;;;;;;;;27.10;1.00;;;;;;4938745;29;19907;-88
2023/06/01 10:29:35;;;;;;;;;;;27.30;1.00;;;;;;4951479;28;19919;-88
2023/06/01 10:32:25;;;;;;;;;;;27.20;1.00;;;;;;5001000;28;19905;-86
2023/06/01 10:35:12;;;;;;;;;;;27.20;1.00;;;;;;4990426;28;19909;-86
2023/06/01 10:37:38;;;;;;;;;;;27.20;1.00;;;;;;4991531;28;19913;-86
2023/06/01 10:40:30;;;;;;;;;;;27.10;1.00;;;;;;5000655;28;20277;-86
2023/06/01 10:46:35;;;;;;;;;;;27.40;1.00;;;;;;5016295;28;19916;-88
2023/06/01 10:49:35;;;;;;;;;;;27.60;1.00;;;;;;5000157;28;19913;-87
2023/06/01 10:52:23;;;;;;;;;;;27.70;1.00;;;;;;4984297;28;19965;-87
2023/06/01 10:55:18;;;;;;;;;;;27.70;1.00;;;;;;4996822;28;19913;-87
2023/06/01 10:58:05;;;;;;;;;;;27.70;1.00;;;;;;5002666;28;19936;-87
2023/06/01 11:00:47;;;;;;;;;;;27.60;1.00;;;;;;5010429;28;19940;-86
2023/06/01 11:03:23;;;;;;;;;;;27.70;1.00;;;;;;4999500;28;20368;-88
2023/06/01 11:05:59;;;;;;;;;;;27.70;1.00;;;;;;5000496;28;19968;-87
2023/06/01 11:11:58;;;;;;;;;;;27.90;1.00;;;;;;5017025;28;19951;-87
2023/06/01 11:14:24;;;;;;;;;;;28.00;1.00;;;;;;4930384;29;19938;-88
2023/06/01 11:16:50;;;;;;;;;;;28.10;1.00;;;;;;4947782;29;20279;-85
2023/06/01 11:19:27;;;;;;;;;;;28.00;1.00;;;;;;4956978;29;19914;-85
2023/06/01 11:22:05;;;;;;;;;;;28.10;1.00;;;;;;4956093;29;19911;-85
2023/06/01 11:24:37;;;;;;;;;;;28.20;1.00;;;;;;4956423;29;20413;-85
2023/06/01 11:27:29;;;;;;;;;;;28.30;1.00;;;;;;4957405;28;19906;-86
2023/06/01 11:29:59;;;;;;;;;;;28.30;1.00;;;;;;4943649;29;20425;-86
2023/06/01 11:32:39;;;;;;;;;;;28.40;1.00;;;;;;4957085;28;19916;-88
2023/06/01 11:38:08;;;;;;;;;;;28.60;1.00;;;;;;4956249;28;20049;-88
2023/06/01 11:41:06;;;;;;;;;;;28.80;1.00;;;;;;4940739;29;20001;-88
2023/06/01 11:43:39;;;;;;;;;;;28.80;1.00;;;;;;4936956;29;20031;-88
2023/06/01 11:46:07;;;;;;;;;;;29.00;1.00;;;;;;4948267;28;19910;-86
2023/06/01 11:48:34;;;;;;;;;;;28.90;1.00;;;;;;4950135;28;20418;-84
2023/06/01 11:51:00;;;;;;;;;;;28.90;1.00;;;;;;4988293;28;20361;-85
2023/06/01 11:53:35;;;;;;;;;;;28.90;1.00;;;;;;4995462;28;20365;-86
2023/06/01 11:56:17;;;;;;;;;;;28.90;1.00;;;;;;5011057;28;19965;-86
2023/06/01 11:58:43;;;;;;;;;;;29.00;1.00;;;;;;5008100;28;20043;-84
2023/06/01 12:04:16;;;;;;;;;;;29.00;1.00;;;;;;5013891;28;19913;-92
2023/06/01 12:07:14;;;;;;;;;;;29.10;1.00;;;;;;4996043;28;19913;-87
2023/06/01 12:13:14;;;;;;;;;;;29.10;1.00;;;;;;4939257;29;19917;-85
2023/06/01 12:16:25;;;;;;;;;;;29.20;1.00;;;;;;4946740;28;19961;-89
2023/06/01 12:18:51;;;;;;;;;;;29.10;1.00;;;;;;4949607;29;19970;-82
2023/06/01 12:21:17;;;;;;;;;;;29.10;1.00;;;;;;4943774;29;19911;-81
2023/06/01 12:23:53;;;;;;;;;;;29.30;1.00;;;;;;4954788;29;19942;-82
2023/06/01 12:26:19;;;;;;;;;;;29.40;1.00;;;;;;4953095;29;19944;-82
2023/06/01 12:28:50;;;;;;;;;;;29.50;1.00;;;;;;4953496;28;19946;-81
2023/06/01 12:31:15;;;;;;;;;;;29.50;1.00;;;;;;4950841;29;19914;-82
2023/06/01 12:33:42;;;;;;;;;;;29.50;1.00;;;;;;4929705;29;19911;-81
2023/06/01 12:36:08;;;;;;;;;;;29.60;1.00;;;;;;4947224;29;19910;-80
2023/06/01 12:38:38;;;;;;;;;;;29.60;1.00;;;;;;4953875;29;19910;-80
2023/06/01 12:41:11;;;;;;;;;;;29.70;1.00;;;;;;4951598;29;19914;-80
2023/06/01 12:46:40;;;;;;;;;;;29.70;1.00;;;;;;5009779;28;19911;-87
2023/06/01 12:49:12;;;;;;;;;;;29.60;1.00;;;;;;4991305;28;19963;-88
2023/06/01 12:51:38;;;;;;;;;;;29.60;1.00;;;;;;4995663;28;19975;-88
2023/06/01 12:54:04;;;;;;;;;;;29.70;1.00;;;;;;4991834;28;20377;-86
2023/06/01 12:56:29;;;;;;;;;;;29.80;1.00;;;;;;5010607;28;19992;-91
2023/06/01 12:58:59;;;;;;;;;;;29.90;1.00;;;;;;4996733;28;19945;-88
2023/06/01 13:01:25;;;;;;;;;;;29.90;1.00;;;;;;4994932;28;19917;-91
2023/06/01 13:03:52;;;;;;;;;;;30.00;1.00;;;;;;4993353;28;20285;-81
2023/06/01 13:06:18;;;;;;;;;;;30.10;1.00;;;;;;4990123;28;20357;-82
2023/06/01 13:08:44;;;;;;;;;;;30.10;1.00;;;;;;4996602;28;19913;-84
2023/06/01 13:11:09;;;;;;;;;;;30.20;1.00;;;;;;4992940;28;19909;-81
2023/06/01 13:13:35;;;;;;;;;;;30.10;1.00;;;;;;5002724;28;19913;-81
2023/06/01 13:16:11;;;;;;;;;;;30.20;1.00;;;;;;5010518;28;19944;-80
2023/06/01 13:18:50;;;;;;;;;;;30.30;1.00;;;;;;5014240;28;19920;-81
2023/06/01 13:21:16;;;;;;;;;;;30.40;1.00;;;;;;5013083;28;19992;-83
2023/06/01 13:23:43;;;;;;;;;;;30.20;1.00;;;;;;5009989;28;20365;-78
2023/06/01 13:26:12;;;;;;;;;;;30.20;1.00;;;;;;4994644;28;19967;-80
2023/06/01 13:28:41;;;;;;;;;;;30.20;1.00;;;;;;5009171;28;19959;-78
2023/06/01 13:31:07;;;;;;;;;;;30.40;1.00;;;;;;5013452;28;19920;-78
2023/06/01 13:33:42;;;;;;;;;;;30.50;1.00;;;;;;5014553;28;19909;-91
2023/06/01 13:39:17;;;;;;;;;;;30.50;1.00;;;;;;4998354;28;19913;-91
2023/06/01 13:41:43;;;;;;;;;;;30.60;1.00;;;;;;5013918;28;19906;-89
2023/06/01 13:50:13;;;;;;;;;;;30.80;1.00;;;;;;5001683;28;19993;-91
2023/06/01 14:02:11;;;;;;;;;;;30.90;1.00;;;;;;5011924;28;20388;-92
2023/06/01 14:07:59;;;;;;;;;;;31.20;1.00;;;;;;5013282;28;19916;-81
2023/06/01 14:10:25;;;;;;;;;;;31.50;1.00;;;;;;4995837;28;20277;-81
2023/06/01 14:12:53;;;;;;;;;;;31.60;1.00;;;;;;5013545;28;19912;-81
2023/06/01 14:15:23;;;;;;;;;;;31.80;1.00;;;;;;4994962;28;19921;-81
2023/06/01 14:18:05;;;;;;;;;;;32.00;1.00;;;;;;5013615;28;19910;-83
2023/06/01 14:20:37;;;;;;;;;;;32.10;1.00;;;;;;4987065;28;20000;-80
2023/06/01 14:26:17;;;;;;;;;;;32.80;1.00;;;;;;5011294;28;19979;-81
2023/06/01 14:28:43;;;;;;;;;;;32.90;1.00;;;;;;5008227;28;19917;-80
2023/06/01 14:31:23;;;;;;;;;;;32.90;1.00;;;;;;4995996;28;19905;-79
2023/06/01 14:36:52;;;;;;;;;;;33.30;1.00;;;;;;5012984;28;19960;-80
2023/06/01 14:39:35;;;;;;;;;;;33.50;1.00;;;;;;4995295;28;19914;-80
2023/06/01 14:42:35;;;;;;;;;;;33.70;1.00;;;;;;4993992;28;19957;-80
2023/06/01 14:45:06;;;;;;;;;;;33.80;1.00;;;;;;4993972;28;19913;-80
2023/06/01 14:47:42;;;;;;;;;;;33.90;1.00;;;;;;5006217;28;19913;-80
2023/06/01 14:50:08;;;;;;;;;;;34.10;1.00;;;;;;5010076;28;20004;-92
2023/06/01 14:52:33;;;;;;;;;;;34.00;1.00;;;;;;5016144;28;19916;-91
2023/06/01 14:58:02;;;;;;;;;;;34.10;1.00;;;;;;5001666;28;19913;-92
2023/06/01 15:00:59;;;;;;;;;;;34.30;1.00;;;;;;5004079;28;19909;-93
2023/06/01 15:06:28;;;;;;;;;;;34.40;1.00;;;;;;4998874;28;19912;-96
2023/06/01 15:11:57;;;;;;;;;;;36.00;1.00;;;;;;4997974;28;19912;-86
2023/06/01 15:14:22;;;;;;;;;;;37.10;1.00;;;;;;5015518;28;19917;-85
2023/06/01 15:16:53;;;;;;;;;;;38.70;1.00;;;;;;4998674;28;19913;-88
2023/06/01 15:22:22;;;;;;;;;;;41.20;1.00;;;;;;5016510;28;19952;-96
2023/06/01 15:27:51;;;;;;;;;;;43.10;1.00;;;;;;5023392;28;19915;-96
2023/06/01 15:36:23;;;;;;;;;;;44.50;1.00;;;;;;5016543;28;19905;-82
2023/06/01 15:38:49;;;;;;;;;;;45.00;1.00;;;;;;5015472;28;19991;-82
2023/06/01 15:41:41;;;;;;;;;;;45.40;1.00;;;;;;5016328;28;19953;-83
2023/06/01 15:44:11;;;;;;;;;;;45.80;1.00;;;;;;4998740;28;19912;-83
2023/06/01 15:49:42;;;;;;;;;;;47.40;1.00;;;;;;5005513;28;19955;-89
2023/06/01 15:55:10;;;;;;;;;;;47.40;1.00;;;;;;5013559;28;20399;-89
2023/06/01 15:58:05;;;;;;;;;;;48.20;1.00;;;;;;4992399;28;19914;-91
2023/06/01 16:04:11;;;;;;;;;;;49.20;1.00;;;;;;5006413;28;19993;-92
2023/06/01 16:06:42;;;;;;;;;;;49.10;1.00;;;;;;5015119;28;19917;-84
2023/06/01 16:09:11;;;;;;;;;;;48.60;1.00;;;;;;5000221;28;19986;-83
2023/06/01 16:11:59;;;;;;;;;;;48.60;1.00;;;;;;5014683;28;19915;-83
2023/06/01 16:14:25;;;;;;;;;;;49.00;1.00;;;;;;5015406;28;19917;-83
2023/06/01 16:16:53;;;;;;;;;;;49.20;1.00;;;;;;5013711;28;19909;-83
2023/06/01 16:19:23;;;;;;;;;;;49.50;1.00;;;;;;4994985;28;19936;-84
2023/06/01 16:22:05;;;;;;;;;;;50.00;1.00;;;;;;5001287;28;19949;-83
2023/06/01 16:24:48;;;;;;;;;;;50.40;1.00;;;;;;4995818;28;19906;-83
2023/06/01 16:27:35;;;;;;;;;;;50.80;1.00;;;;;;5011113;28;19905;-83
2023/06/01 16:30:35;;;;;;;;;;;50.40;1.00;;;;;;5009761;28;20000;-83
2023/06/01 16:33:06;;;;;;;;;;;49.40;1.00;;;;;;5013881;28;19975;-83
2023/06/01 16:54:05;;;;;;;;;;;41.10;1.00;;;;;;5016560;28;19944;-95
2023/06/01 16:59:33;;;;;;;;;;;42.80;1.00;;;;;;5005990;28;19937;-91
2023/06/01 17:02:12;;;;;;;;;;;43.80;1.00;;;;;;4998074;28;19926;-86
2023/06/01 17:04:48;;;;;;;;;;;44.30;1.00;;;;;;4997571;28;20434;-83
2023/06/01 17:07:13;;;;;;;;;;;44.70;1.00;;;;;;4994366;28;19914;-83
2023/06/01 17:09:42;;;;;;;;;;;44.90;1.00;;;;;;5014309;28;19960;-83
2023/06/01 17:12:17;;;;;;;;;;;44.50;1.00;;;;;;5013108;28;19913;-83
2023/06/01 17:14:45;;;;;;;;;;;44.40;1.00;;;;;;5011423;28;19917;-84
2023/06/01 17:20:15;;;;;;;;;;;44.50;1.00;;;;;;5003413;28;19976;-83
2023/06/01 17:22:49;;;;;;;;;;;45.30;1.00;;;;;;5014443;28;19910;-83
2023/06/01 17:25:15;;;;;;;992.47;887.72;;;45.40;1.00;;;;;;5013405;28;20942;-82
2023/06/01 17:27:43;;;;;;;;;;;45.70;1.00;;;;;;4989737;28;20221;-82
2023/06/01 17:33:12;;;;;;;;;;;45.80;1.00;;;;;;5013986;28;19932;-81
2023/06/01 17:35:48;;;;;;;;;;;45.20;1.00;;;;;;5014587;28;20380;-92
2023/06/01 17:47:30;;;;;;;;;;;40.40;1.00;;;;;;5014290;28;20004;-86